Pescara - LIBP

Metar : METAR LIBP 121220Z AUTO 04008KT 9999 FEW240/// 30/18 Q1015=

Taf : TAF LIBP 121100Z 1212/1312 04010KT CAVOK BECMG 1217/1219 VRB04KT=

 Scopri come leggere i bollettini codificati...


Storico

LIBP 121220Z AUTO 04008KT 9999 FEW240/// 30/18 Q1015
LIBP 121150Z AUTO 05008KT 020V080 9999 NCD 30/19 Q1015
LIBP 121120Z AUTO 04007KT 010V080 9999 NCD 30/19 Q1016
LIBP 121050Z AUTO 05007KT 010V070 9999 NCD 30/20 Q1016
LIBP 121020Z AUTO 05009KT 010V070 9999 NCD 30/20 Q1016
LIBP 120950Z AUTO 05009KT 010V070 9999 NCD 29/20 Q1016
LIBP 120920Z AUTO 04009KT 9999 NCD 30/17 Q1016
LIBP 120850Z AUTO 03008KT 9999 NCD 31/17 Q1016
LIBP 120820Z AUTO VRB03KT 9999 NCD 31/16 Q1015
LIBP 120750Z AUTO VRB02KT 9999 NCD 29/15 Q1015
LIBP 120720Z AUTO 21003KT 180V250 9999 NCD 28/16 Q1015
LIBP 120650Z AUTO 23004KT 210V270 9999 NCD 26/16 Q1015
LIBP 120620Z AUTO 20003KT 170V240 9999 NCD 24/16 Q1015
LIBP 120550Z AUTO 21004KT 9999 NCD 22/16 Q1015
LIBP 120520Z AUTO 25003KT 9999 NCD 21/15 Q1015
LIBP 120450Z AUTO 23003KT 9999 NCD 19/15 Q1015
LIBP 120420Z AUTO 19003KT 9999 NCD 19/15 Q1015
LIBP 120350Z AUTO 24003KT 9999 NCD 19/15 Q1015
LIBP 120320Z AUTO 20005KT 9999 NCD 19/15 Q1015
LIBP 120250Z AUTO 22003KT 9999 NCD 20/15 Q1015
LIBP 120220Z AUTO 22005KT 9999 NCD 19/16 Q1015
LIBP 120150Z AUTO 23004KT 9999 NCD 19/15 Q1015
LIBP 120120Z AUTO 23004KT 9999 NCD 20/16 Q1015
LIBP 120050Z AUTO 22005KT 9999 NCD 19/16 Q1015
LIBP 120020Z AUTO 21004KT 9999 NCD 19/16 Q1015
LIBP 112350Z AUTO 24004KT 9999 NCD 21/16 Q1015
LIBP 112320Z AUTO 23003KT 9999 NCD 21/16 Q1015
LIBP 112250Z AUTO 22004KT 9999 NCD 20/16 Q1015
LIBP 112220Z AUTO 21004KT 9999 NCD 21/16 Q1015
LIBP 112150Z AUTO 22006KT 9999 NCD 21/16 Q1015
LIBP 112120Z AUTO 24003KT 9999 NCD 22/17 Q1015
LIBP 112050Z AUTO 23005KT 9999 NCD 22/16 Q1015
LIBP 112020Z AUTO 25003KT 9999 NCD 23/17 Q1016
LIBP 111950Z AUTO 22003KT 9999 NCD 24/16 Q1016
LIBP 111920Z AUTO 24002KT 9999 NCD 25/17 Q1015
LIBP 111750Z AUTO 05004KT 9999 NCD 28/17 Q1015
LIBP 111720Z AUTO VRB02KT 9999 NCD 29/17 Q1015
LIBP 111650Z AUTO 06005KT 9999 NCD 28/18 Q1015
LIBP 111620Z AUTO 06004KT 9999 NCD 29/16 Q1015
LIBP 111450Z AUTO 06007KT 9999 NCD 31/16 Q1015
LIBP 111320Z AUTO 07010KT 9999 NCD 32/16 Q1015
LIBP 111250Z AUTO 07009KT 9999 NCD 32/16 Q1015
LIBP 111220Z AUTO 07010KT 040V100 9999 NCD 32/15 Q1015
LIBP 111150Z AUTO 07009KT 040V100 9999 NCD 32/16 Q1015
LIBP 111120Z AUTO 07008KT 9999 NCD 32/17 Q1016
LIBP 111050Z AUTO 06009KT 9999 NCD 32/17 Q1015
LIBP 111020Z AUTO 06009KT 9999 NCD 32/17 Q1016
LIBP 110950Z AUTO 05008KT 9999 NCD 31/16 Q1016
LIBP 110920Z AUTO 05008KT 9999 NCD 31/17 Q1016
LIBP 110850Z AUTO 05007KT 9999 NCD 31/17 Q1015
LIBP 110820Z AUTO VRB02KT 9999 NCD 31/17 Q1015
LIBP 110750Z AUTO 23004KT 200V270 9999 NCD 29/17 Q1015
LIBP 110720Z AUTO 23004KT 200V280 9999 NCD 27/17 Q1016
LIBP 110650Z AUTO 23004KT 200V270 9999 NCD 26/17 Q1015
LIBP 110620Z AUTO 22003KT 9999 NCD 24/16 Q1015
LIBP 110550Z AUTO 21004KT 9999 NCD 22/16 Q1015
LIBP 110520Z AUTO 22004KT 9999 NCD 20/16 Q1015
LIBP 110450Z AUTO 21005KT 9999 NCD 19/16 Q1015
LIBP 110420Z AUTO 21005KT 9999 NCD 18/15 Q1015
LIBP 110350Z AUTO 21006KT 9999 NCD 18/16 Q1015
LIBP 110320Z AUTO 25005KT 9999 NCD 19/16 Q1015
LIBP 110250Z AUTO 22006KT 9999 NCD 19/16 Q1015
LIBP 110220Z AUTO 21006KT 9999 NCD 19/16 Q1015
LIBP 110150Z AUTO 22006KT 9999 NCD 19/16 Q1015
LIBP 110120Z AUTO 23004KT 9999 NCD 19/16 Q1015
LIBP 110050Z AUTO 23005KT 9999 NCD 20/16 Q1015
LIBP 110020Z AUTO 23004KT 9999 NCD 20/16 Q1015
LIBP 102350Z AUTO 23005KT 9999 NCD 21/17 Q1015
LIBP 102320Z AUTO 24004KT 9999 NCD 22/17 Q1015
LIBP 102250Z AUTO 23004KT 9999 NCD 21/17 Q1015
LIBP 102220Z AUTO 22004KT 9999 NCD 21/17 Q1015
LIBP 102150Z AUTO 24004KT 9999 NCD 22/18 Q1015
LIBP 102120Z AUTO 24002KT 9999 NCD 22/17 Q1015
LIBP 102050Z AUTO 21003KT 9999 NCD 22/17 Q1015
LIBP 102020Z AUTO VRB02KT 9999 NCD 24/19 Q1015
LIBP 101950Z AUTO 34002KT 9999 NCD 24/19 Q1014
LIBP 101920Z AUTO 05004KT 9999 NCD 26/19 Q1014
LIBP 101850Z AUTO 06004KT 9999 NCD 26/19 Q1014
LIBP 101820Z AUTO 07005KT 9999 NCD 27/18 Q1014
LIBP 101750Z AUTO 08003KT 9999 NCD 28/18 Q1013
LIBP 101720Z AUTO 05003KT 9999 NCD 29/17 Q1013
LIBP 101650Z AUTO VRB02KT 9999 NCD 29/17 Q1014
LIBP 101620Z AUTO 04003KT 360V090 9999 NCD 29/18 Q1014
LIBP 101550Z AUTO 04004KT 350V100 9999 NCD 29/18 Q1014
LIBP 101520Z AUTO 04007KT 9999 NCD 29/18 Q1014
LIBP 101450Z AUTO 03007KT 9999 NCD 29/19 Q1014
LIBP 101350Z AUTO 03008KT 9999 NCD 30/19 Q1014
LIBP 101320Z AUTO 05009KT 010V070 9999 NCD 30/19 Q1014
LIBP 101250Z AUTO 04010KT 9999 NCD 30/19 Q1014
LIBP 101220Z AUTO 05010KT 020V080 9999 NCD 30/20 Q1014
LIBP 101150Z AUTO 04009KT 010V070 9999 NCD 30/19 Q1014
LIBP 101120Z AUTO 03009KT 9999 NCD 29/19 Q1014
LIBP 101050Z AUTO 04009KT 9999 NCD 30/19 Q1014
LIBP 101020Z AUTO 04010KT 9999 NCD 30/18 Q1014
LIBP 100950Z AUTO 05009KT 9999 NCD 31/18 Q1014
LIBP 100920Z AUTO 07007KT 020V100 9999 NCD 30/17 Q1014
LIBP 100850Z AUTO 07006KT 030V140 9999 NCD 31/16 Q1014
LIBP 100820Z AUTO VRB02KT 9999 NCD 30/16 Q1014
LIBP 100750Z AUTO VRB02KT 9999 NCD 29/16 Q1014
LIBP 100720Z AUTO 20003KT 160V260 9999 NCD 28/15 Q1014
LIBP 100650Z AUTO 23006KT 9999 NCD 26/15 Q1014
LIBP 100620Z AUTO 23004KT 9999 NCD 25/16 Q1015
LIBP 100550Z AUTO 24005KT 9999 NCD 23/16 Q1014
LIBP 100520Z AUTO 22003KT 9999 NCD 21/16 Q1014
LIBP 100450Z AUTO 23004KT 9999 NCD 20/15 Q1014
LIBP 100420Z AUTO 23004KT 9999 NCD 19/15 Q1014
LIBP 100350Z AUTO 19005KT 9999 NCD 19/15 Q1014
LIBP 100320Z AUTO 22004KT 9999 NCD 19/15 Q1014
LIBP 100250Z AUTO 22003KT 9999 NCD 20/15 Q1014
LIBP 100220Z AUTO 24004KT 210V270 9999 NCD 20/16 Q1014
LIBP 100150Z AUTO 23005KT 9999 NCD 19/16 Q1014
LIBP 100120Z AUTO 22005KT 9999 NCD 20/16 Q1014
LIBP 100050Z AUTO 23004KT 9999 NCD 20/16 Q1014
LIBP 100020Z AUTO 24003KT 9999 NCD 20/16 Q1014
LIBP 092350Z AUTO 25003KT 210V270 9999 NCD 21/16 Q1014
LIBP 092250Z AUTO 26004KT 9999 NCD 22/17 Q1014
LIBP 092220Z AUTO 23005KT 9999 NCD 22/17 Q1014
LIBP 092150Z AUTO 23006KT 9999 NCD 23/17 Q1015
LIBP 092120Z AUTO 24005KT 9999 NCD 23/17 Q1014
LIBP 092050Z AUTO 25004KT 9999 NCD 24/17 Q1014
LIBP 092020Z AUTO 21006KT 9999 NCD 23/17 Q1015
LIBP 091950Z AUTO 24002KT 9999 NCD 24/17 Q1014
LIBP 091920Z AUTO 21002KT 9999 NCD 25/18 Q1014
LIBP 091850Z AUTO VRB02KT 9999 NCD 26/19 Q1014
LIBP 091820Z AUTO 05003KT 9999 NCD 26/19 Q1014
LIBP 091750Z AUTO 05004KT 9999 NCD 27/19 Q1014
LIBP 091720Z AUTO 04004KT 9999 NCD 29/16 Q1014
LIBP 091650Z AUTO 06005KT 020V080 9999 NCD 30/15 Q1013
LIBP 091620Z AUTO 04006KT 9999 NCD 30/15 Q1014
LIBP 091550Z AUTO 05007KT 9999 NCD 30/16 Q1014
LIBP 091520Z AUTO 05007KT 020V080 9999 NCD 31/16 Q1014
LIBP 091450Z AUTO 04006KT 350V120 9999 NCD 30/17 Q1014
LIBP 091420Z AUTO 04007KT 9999 NCD 30/18 Q1014
LIBP 091350Z AUTO 04007KT 9999 NCD 30/18 Q1014
LIBP 091320Z AUTO 05008KT 020V080 9999 NCD 31/18 Q1015
LIBP 091250Z AUTO 02008KT 340V050 9999 NCD 31/18 Q1015
LIBP 091220Z AUTO 02009KT 350V050 9999 NCD 30/19 Q1015
LIBP 091150Z AUTO 04009KT 9999 NCD 31/19 Q1015
LIBP 091120Z AUTO 05010KT 9999 FEW220/// 30/19 Q1016
LIBP 091050Z AUTO 03010KT 360V060 9999 NCD 30/19 Q1016
LIBP 091020Z AUTO 03012KT 9999 NCD 30/20 Q1016
LIBP 090950Z AUTO 03012KT 9999 NCD 30/19 Q1016
LIBP 090920Z AUTO 03011KT 9999 NCD 30/19 Q1016
LIBP 090850Z AUTO 03011KT 9999 NCD 29/19 Q1016
LIBP 090820Z AUTO 03008KT 340V050 9999 NCD 30/18 Q1016
LIBP 090750Z AUTO VRB02KT 9999 NCD 28/18 Q1016
LIBP 090720Z AUTO 23004KT 9999 NCD 27/18 Q1016
LIBP 090650Z AUTO 23007KT 9999 NCD 25/16 Q1016
LIBP 090620Z AUTO 24006KT 9999 NCD 24/16 Q1016
LIBP 090550Z AUTO 24006KT 9999 NCD 23/15 Q1016
LIBP 090520Z AUTO 25006KT 9999 NCD 21/15 Q1016
LIBP 090450Z AUTO 24005KT 9999 NCD 20/15 Q1016
LIBP 090420Z AUTO 23005KT 9999 NCD 20/15 Q1016
LIBP 090350Z AUTO 26006KT 9999 NCD 20/15 Q1016
LIBP 090320Z AUTO 25006KT 9999 NCD 20/15 Q1015
LIBP 090250Z AUTO 24006KT 9999 NCD 21/14 Q1015
LIBP 090220Z AUTO 25005KT 9999 NCD 21/15 Q1015
LIBP 090150Z AUTO 26005KT 9999 NCD 21/15 Q1015
LIBP 090120Z AUTO 25004KT 9999 NCD 21/15 Q1015
LIBP 090050Z AUTO 25005KT 9999 NCD 21/15 Q1015
LIBP 090020Z AUTO 25005KT 9999 NCD 22/15 Q1015
LIBP 082350Z AUTO 26005KT 9999 NCD 22/15 Q1015
LIBP 082320Z AUTO 26005KT 9999 NCD 22/15 Q1015
LIBP 082250Z AUTO 25005KT 9999 NCD 22/15 Q1015
LIBP 082220Z AUTO 25004KT 9999 NCD 22/16 Q1015
LIBP 082150Z AUTO 24006KT 9999 NCD 23/16 Q1015
LIBP 082120Z AUTO 24006KT 210V270 9999 NCD 23/16 Q1015
LIBP 082050Z AUTO 24006KT 9999 NCD 23/16 Q1015
LIBP 082020Z AUTO 24005KT 9999 NCD 24/17 Q1016
LIBP 081950Z AUTO 24006KT 9999 NCD 25/17 Q1016
LIBP 081920Z AUTO 22005KT 9999 NCD 24/17 Q1016

Informazioni elaborate utilizzando, tra l’altro, dati e prodotti del Servizio Meteorologico dell’Aeronautica Militare pubblicati sul sito www.meteoam.it e della National Oceanic and Atmospheric Administration (NOAA)

Ultimi caricamenti...


OE-FME Rockwell 690A Turbo Commander Meixner Vermessung

 


OE-FME Rockwell 690A Turbo Commander Meixner Vermessung

 


G-WKTH Diamond Executive Aviation DA62

Questo sito non utilizza cookie di profilazione. Il sito utilizza cookie tecnici, di analisi anonima di prima parte e di terze parti per servizi di social network.